Time;durP1;ratioP1;P1;durP2;ratioP2;P2;SDS_P1;SDS_P2;PMS_P1;PMS_P2;Temp;Humidity;BMP_temperature;BMP_pressure;BME280_temperature;BME280_humidity;BME280_pressure;Samples;Min_cycle;Max_cycle;Signal;HPM_P1;HPM_P2
2022/09/29 00:01:05;;;;;;;3.10;0.25;;;16.30;99.90;;;;;;4996154;28;20033;-73
2022/09/29 00:03:33;;;;;;;0.65;0.40;;;16.30;99.90;;;;;;4996316;28;20027;-73
2022/09/29 00:06:01;;;;;;;0.63;0.30;;;16.40;99.90;;;;;;4996243;28;20065;-75
2022/09/29 00:08:30;;;;;;;2.42;0.40;;;16.40;99.90;;;;;;4996187;28;20093;-72
2022/09/29 00:10:58;;;;;;;2.28;0.50;;;16.40;99.90;;;;;;4996297;28;20054;-73
2022/09/29 00:13:25;;;;;;;0.77;0.50;;;16.40;99.90;;;;;;4994732;28;20034;-73
2022/09/29 00:16:01;;;;;;;1.55;0.20;;;16.40;99.90;;;;;;4995595;28;20439;-73
2022/09/29 00:18:30;;;;;;;0.47;0.35;;;16.50;99.90;;;;;;4996278;28;20105;-73
2022/09/29 00:21:04;;;;;;;0.93;0.30;;;16.60;99.90;;;;;;4994962;28;20065;-71
2022/09/29 00:23:34;;;;;;;0.32;0.30;;;16.70;99.90;;;;;;4995602;28;20085;-72
2022/09/29 00:26:10;;;;;;;2.53;0.52;;;16.80;99.90;;;;;;4995381;28;20454;-72
2022/09/29 00:28:40;;;;;;;12.02;1.80;;;16.90;99.90;;;;;;4995708;28;20387;-73
2022/09/29 00:31:10;;;;;;;0.63;0.28;;;16.80;99.90;;;;;;4995062;28;20458;-75
2022/09/29 00:33:41;;;;;;;1.75;0.22;;;16.30;99.90;;;;;;4995482;28;20019;-73
2022/09/29 00:36:13;;;;;;;0.50;0.20;;;15.80;99.90;;;;;;4995533;28;20447;-73
2022/09/29 00:38:42;;;;;;;0.90;0.35;;;15.60;99.90;;;;;;4996057;28;20027;-73
2022/09/29 00:41:20;;;;;;;2.92;0.50;;;15.50;99.90;;;;;;4995725;28;20038;-72
2022/09/29 00:44:01;;;;;;;0.32;0.28;;;15.50;99.90;;;;;;4995755;28;20061;-73
2022/09/29 00:46:43;;;;;;;0.28;0.20;;;15.60;99.90;;;;;;4984860;28;20153;-72
2022/09/29 00:49:29;;;;;;;1.00;0.30;;;15.60;99.90;;;;;;4990271;28;20105;-73
2022/09/29 00:52:03;;;;;;;3.03;0.32;;;15.70;99.90;;;;;;4989125;28;20019;-73
2022/09/29 00:54:57;;;;;;;0.38;0.28;;;15.90;99.90;;;;;;4996311;28;20038;-73
2022/09/29 00:57:30;;;;;;;0.20;0.20;;;15.80;99.90;;;;;;4994960;28;20383;-72
2022/09/29 01:00:12;;;;;;;0.22;0.20;;;15.80;99.90;;;;;;4997255;28;20026;-73
2022/09/29 01:02:52;;;;;;;0.30;0.20;;;15.80;99.90;;;;;;4996914;28;20085;-73
2022/09/29 01:05:28;;;;;;;1.25;0.20;;;15.80;99.90;;;;;;4996327;28;20015;-73
2022/09/29 01:07:56;;;;;;;0.93;0.30;;;15.80;99.90;;;;;;4997519;28;20384;-74
2022/09/29 01:10:26;;;;;;;1.85;0.22;;;15.90;99.90;;;;;;4990365;28;20438;-74
2022/09/29 01:12:54;;;;;;;0.93;0.32;;;16.00;99.90;;;;;;4998137;28;20038;-74
2022/09/29 01:15:22;;;;;;;0.28;0.20;;;16.10;99.90;;;;;;4998152;28;20049;-71
2022/09/29 01:17:50;;;;;;;0.77;0.40;;;16.30;99.90;;;;;;4995914;28;20026;-73
2022/09/29 01:20:21;;;;;;;0.50;0.20;;;16.40;99.90;;;;;;4995815;28;20039;-73
2022/09/29 01:22:58;;;;;;;2.00;0.30;;;16.60;99.90;;;;;;4996411;28;20057;-73
2022/09/29 01:25:50;;;;;;;0.40;0.30;;;16.70;99.90;;;;;;4994838;28;20029;-73
2022/09/29 01:28:32;;;;;;;0.20;0.20;;;16.70;99.90;;;;;;4994878;28;20027;-74
2022/09/29 01:31:08;;;;;;;0.50;0.30;;;16.60;99.90;;;;;;5000019;28;20049;-73
2022/09/29 01:34:02;;;;;;;0.90;0.28;;;16.50;99.90;;;;;;5014320;28;20021;-73
2022/09/29 01:36:51;;;;;;;1.02;0.20;;;16.50;99.90;;;;;;5007755;28;20027;-73
2022/09/29 01:39:50;;;;;;;0.30;0.20;;;16.70;99.90;;;;;;4984770;28;20088;-73
2022/09/29 01:42:32;;;;;;;0.60;0.28;;;16.80;99.90;;;;;;4980919;28;20042;-73
2022/09/29 01:45:21;;;;;;;0.85;0.30;;;16.80;99.90;;;;;;5014354;28;20026;-73
2022/09/29 01:47:54;;;;;;;0.75;0.30;;;16.70;99.90;;;;;;4999489;28;20022;-73
2022/09/29 01:50:31;;;;;;;0.65;0.15;;;16.80;99.90;;;;;;4994576;28;20352;-74
2022/09/29 01:53:10;;;;;;;0.47;0.28;;;16.90;99.90;;;;;;5013604;28;20052;-72
2022/09/29 01:55:45;;;;;;;1.23;0.50;;;17.00;99.90;;;;;;5014202;28;20061;-73
2022/09/29 01:58:23;;;;;;;0.30;0.20;;;17.10;99.90;;;;;;5014221;28;20382;-72
2022/09/29 02:00:58;;;;;;;1.00;0.30;;;17.20;99.90;;;;;;5013953;28;20038;-73
2022/09/29 02:03:36;;;;;;;0.30;0.27;;;17.20;99.90;;;;;;5014265;28;20030;-72
2022/09/29 02:06:11;;;;;;;0.15;0.15;;;17.20;99.90;;;;;;5013959;28;20026;-72
2022/09/29 02:08:52;;;;;;;0.20;0.10;;;17.10;99.90;;;;;;4992916;28;20521;-73
2022/09/29 02:11:20;;;;;;;1.60;0.40;;;17.00;99.90;;;;;;4982501;28;20121;-73
2022/09/29 02:13:54;;;;;;;1.02;0.30;;;17.00;99.90;;;;;;4981345;28;20022;-73
2022/09/29 02:16:30;;;;;;;0.75;0.30;;;17.00;99.90;;;;;;4980668;28;20027;-73
2022/09/29 02:19:09;;;;;;;4.35;0.40;;;17.00;99.90;;;;;;4980467;28;20058;-73
2022/09/29 02:21:37;;;;;;;0.55;0.30;;;17.00;99.90;;;;;;4985870;28;20048;-72
2022/09/29 02:24:05;;;;;;;0.32;0.22;;;16.90;99.90;;;;;;4984774;28;20146;-72
2022/09/29 02:26:34;;;;;;;0.20;0.20;;;16.90;99.90;;;;;;4982833;28;20027;-72
2022/09/29 02:29:04;;;;;;;0.30;0.20;;;16.80;99.90;;;;;;4984091;28;20030;-72
2022/09/29 02:31:34;;;;;;;0.98;0.25;;;16.80;99.90;;;;;;4983744;28;20055;-73
2022/09/29 02:34:03;;;;;;;0.98;0.30;;;16.80;99.90;;;;;;4983669;28;20493;-73
2022/09/29 02:36:57;;;;;;;0.77;0.30;;;16.70;99.90;;;;;;4984065;28;20064;-72
2022/09/29 02:39:35;;;;;;;1.17;0.32;;;16.70;99.90;;;;;;4983925;28;20050;-73
2022/09/29 02:42:15;;;;;;;1.98;0.30;;;16.90;99.90;;;;;;4983668;28;20108;-73
2022/09/29 02:45:18;;;;;;;0.93;0.30;;;17.00;99.90;;;;;;4983588;28;20033;-73
2022/09/29 02:48:04;;;;;;;0.38;0.20;;;17.20;99.90;;;;;;4983271;28;20077;-72
2022/09/29 02:50:54;;;;;;;0.35;0.35;;;17.20;99.90;;;;;;4984697;28;20507;-73
2022/09/29 02:53:36;;;;;;;0.82;0.47;;;17.30;99.90;;;;;;4983974;28;20085;-72
2022/09/29 02:56:04;;;;;;;0.55;0.30;;;17.20;99.90;;;;;;4983753;28;20361;-73
2022/09/29 02:58:35;;;;;;;2.60;0.50;;;17.30;99.90;;;;;;4983528;28;20030;-72
2022/09/29 03:01:04;;;;;;;2.15;0.40;;;17.40;99.90;;;;;;4988717;28;20045;-71
2022/09/29 03:03:32;;;;;;;2.17;0.45;;;17.60;99.90;;;;;;4989913;28;20027;-72
2022/09/29 03:06:00;;;;;;;0.82;0.45;;;17.60;99.90;;;;;;4984495;28;20054;-73
2022/09/29 03:08:28;;;;;;;2.03;0.25;;;17.40;99.90;;;;;;4983526;28;20097;-71
2022/09/29 03:10:55;;;;;;;1.10;0.40;;;17.30;99.90;;;;;;4982033;28;20022;-72
2022/09/29 03:13:23;;;;;;;1.73;0.30;;;17.40;99.90;;;;;;4990740;28;20026;-71
2022/09/29 03:15:54;;;;;;;4.03;0.93;;;17.50;99.90;;;;;;4991181;28;20043;-72
2022/09/29 03:18:23;;;;;;;2.17;0.35;;;17.50;99.90;;;;;;4990666;28;20028;-74
2022/09/29 03:20:53;;;;;;;3.45;0.40;;;17.60;99.90;;;;;;4990739;28;20053;-73
2022/09/29 03:23:20;;;;;;;3.38;0.35;;;17.50;99.90;;;;;;4991032;28;20386;-71
2022/09/29 03:25:48;;;;;;;1.55;0.40;;;17.50;99.90;;;;;;4991097;28;20023;-71
2022/09/29 03:28:16;;;;;;;5.03;0.30;;;17.50;99.90;;;;;;4991093;28;20097;-71
2022/09/29 03:30:46;;;;;;;0.40;0.10;;;17.50;99.90;;;;;;4994267;28;20038;-71
2022/09/29 03:33:14;;;;;;;1.20;0.28;;;17.40;99.90;;;;;;4995540;28;20030;-71
2022/09/29 03:35:42;;;;;;;1.70;0.68;;;17.20;99.90;;;;;;4986934;28;20049;-71
2022/09/29 03:38:09;;;;;;;1.17;0.63;;;17.20;99.90;;;;;;4988804;28;20123;-71
2022/09/29 03:40:36;;;;;;;1.58;0.60;;;17.20;99.90;;;;;;4984606;28;20492;-71
2022/09/29 03:43:04;;;;;;;2.55;0.52;;;17.30;99.90;;;;;;4986621;28;20072;-71
2022/09/29 03:45:31;;;;;;;1.02;0.30;;;17.30;99.90;;;;;;4986547;28;20042;-71
2022/09/29 03:47:58;;;;;;;2.67;0.40;;;17.40;99.90;;;;;;4985618;28;20027;-71
2022/09/29 03:50:26;;;;;;;0.22;0.20;;;17.50;99.90;;;;;;4986220;28;20037;-71
2022/09/29 03:52:53;;;;;;;0.77;0.30;;;17.50;99.90;;;;;;4987500;28;20025;-71
2022/09/29 03:55:21;;;;;;;1.52;0.45;;;17.70;99.90;;;;;;4986052;28;20054;-71
2022/09/29 03:57:48;;;;;;;3.70;0.90;;;17.70;99.90;;;;;;4985795;28;20375;-71
2022/09/29 04:00:16;;;;;;;6.00;0.85;;;17.70;99.90;;;;;;4987344;28;20019;-71
2022/09/29 04:02:43;;;;;;;3.30;1.02;;;17.90;99.90;;;;;;4986366;28;20019;-71
2022/09/29 04:05:11;;;;;;;3.55;0.77;;;17.80;99.90;;;;;;4987471;28;20113;-71
2022/09/29 04:07:38;;;;;;;6.53;1.40;;;17.60;99.90;;;;;;4981550;28;20510;-71
2022/09/29 04:10:06;;;;;;;1.77;0.52;;;17.60;99.90;;;;;;4989915;28;20484;-71
2022/09/29 04:12:33;;;;;;;3.65;0.70;;;17.50;99.90;;;;;;4989463;28;20033;-71
2022/09/29 04:15:01;;;;;;;2.17;0.73;;;17.40;99.90;;;;;;4989859;28;20026;-71
2022/09/29 04:17:28;;;;;;;2.25;0.57;;;17.30;99.90;;;;;;4979372;28;20476;-71
2022/09/29 04:19:56;;;;;;;1.38;0.57;;;16.70;99.90;;;;;;4976952;28;20110;-69
2022/09/29 04:22:23;;;;;;;3.90;0.73;;;16.30;99.90;;;;;;4987164;28;20034;-71
2022/09/29 04:24:51;;;;;;;1.48;0.35;;;15.90;99.90;;;;;;4994914;28;20035;-69
2022/09/29 04:27:19;;;;;;;5.60;0.65;;;15.70;99.90;;;;;;4996241;28;20054;-71
2022/09/29 04:29:46;;;;;;;1.83;0.88;;;15.60;99.90;;;;;;4995818;28;20038;-71
2022/09/29 04:32:13;;;;;;;4.35;0.45;;;15.50;99.90;;;;;;4995943;28;20430;-73
2022/09/29 04:34:41;;;;;;;2.03;0.55;;;15.50;99.90;;;;;;4987061;28;20062;-76
2022/09/29 04:37:10;;;;;;;2.15;0.70;;;15.40;99.90;;;;;;4984755;28;20026;-75
2022/09/29 04:39:41;;;;;;;6.55;0.93;;;15.40;99.90;;;;;;4986240;28;20026;-74
2022/09/29 04:42:09;;;;;;;3.63;0.90;;;15.60;99.90;;;;;;4990285;28;20483;-75
2022/09/29 04:44:36;;;;;;;2.83;0.60;;;15.70;99.90;;;;;;4990308;28;20166;-74
2022/09/29 04:47:04;;;;;;;4.93;1.05;;;15.90;99.90;;;;;;4986040;28;20021;-73
2022/09/29 04:49:31;;;;;;;2.83;0.73;;;15.90;99.90;;;;;;4984298;28;20085;-74
2022/09/29 04:51:58;;;;;;;4.50;1.10;;;15.90;99.90;;;;;;4984641;28;20102;-73
2022/09/29 04:54:29;;;;;;;1.45;0.43;;;15.90;99.90;;;;;;4988723;28;20062;-74
2022/09/29 04:56:56;;;;;;;6.78;1.55;;;15.80;99.90;;;;;;4993391;28;20033;-75
2022/09/29 04:59:24;;;;;;;3.30;0.75;;;15.70;99.90;;;;;;4993702;28;20022;-74
2022/09/29 05:01:52;;;;;;;2.85;0.95;;;15.70;99.90;;;;;;4993140;28;20034;-74
2022/09/29 05:04:20;;;;;;;4.60;0.82;;;15.70;99.90;;;;;;4995489;28;20463;-73
2022/09/29 05:06:47;;;;;;;3.00;0.90;;;15.70;99.90;;;;;;4993467;28;20030;-73
2022/09/29 05:09:14;;;;;;;1.45;0.55;;;15.60;99.90;;;;;;4993152;28;20025;-74
2022/09/29 05:11:42;;;;;;;0.75;0.40;;;15.50;99.90;;;;;;4990918;28;20334;-74
2022/09/29 05:14:10;;;;;;;2.58;0.28;;;15.60;99.90;;;;;;4991561;28;20475;-74
2022/09/29 05:16:38;;;;;;;0.73;0.25;;;15.50;99.90;;;;;;4991232;28;20032;-74
2022/09/29 05:19:05;;;;;;;1.30;0.50;;;15.50;99.90;;;;;;4991084;28;20129;-74
2022/09/29 05:21:33;;;;;;;2.95;0.73;;;15.50;99.90;;;;;;4992073;28;20049;-75
2022/09/29 05:24:00;;;;;;;2.40;0.85;;;15.50;99.90;;;;;;4993472;28;20029;-74
2022/09/29 05:26:27;;;;;;;2.08;0.52;;;15.40;99.90;;;;;;4994059;28;20037;-72
2022/09/29 05:28:55;;;;;;;3.10;0.60;;;15.30;99.90;;;;;;4994930;28;20109;-74
2022/09/29 05:31:22;;;;;;;6.15;0.63;;;15.20;99.90;;;;;;4994619;28;20038;-72
2022/09/29 05:33:49;;;;;;;1.27;0.50;;;15.10;99.90;;;;;;4993732;28;20379;-75
2022/09/29 05:36:17;;;;;;;1.05;0.95;;;15.00;99.90;;;;;;4994977;28;20058;-73
2022/09/29 05:38:44;;;;;;;3.15;0.63;;;15.00;99.90;;;;;;4994873;28;20027;-75
2022/09/29 05:41:13;;;;;;;1.40;0.52;;;14.90;99.90;;;;;;4994662;28;20034;-74
2022/09/29 05:43:41;;;;;;;6.50;1.27;;;14.90;99.90;;;;;;4995000;28;20081;-73
2022/09/29 05:46:09;;;;;;;1.63;0.55;;;14.80;99.90;;;;;;4994816;28;20037;-73
2022/09/29 05:48:37;;;;;;;3.65;0.73;;;14.70;99.90;;;;;;4994643;28;20406;-71
2022/09/29 05:51:13;;;;;;;6.00;0.93;;;14.70;99.90;;;;;;4994632;28;20026;-74
2022/09/29 05:53:41;;;;;;;3.25;0.93;;;14.70;99.90;;;;;;4994746;28;20030;-73
2022/09/29 05:56:11;;;;;;;4.13;1.02;;;14.70;99.90;;;;;;4994701;28;20120;-73
2022/09/29 05:58:39;;;;;;;9.10;1.50;;;14.70;99.90;;;;;;4994334;28;20109;-74
2022/09/29 06:01:22;;;;;;;5.78;1.00;;;14.70;99.90;;;;;;4994369;28;20037;-73
2022/09/29 06:03:50;;;;;;;3.22;0.70;;;14.70;99.90;;;;;;4994057;28;20026;-75
2022/09/29 06:06:21;;;;;;;6.00;0.85;;;14.70;99.90;;;;;;4994567;28;20376;-74
2022/09/29 06:08:49;;;;;;;10.57;1.08;;;14.70;99.90;;;;;;4994592;28;20567;-76
2022/09/29 06:11:18;;;;;;;4.25;0.80;;;14.80;99.90;;;;;;4994152;28;20365;-72
2022/09/29 06:13:48;;;;;;;9.85;1.17;;;14.80;99.90;;;;;;4994311;28;20500;-76
2022/09/29 06:16:20;;;;;;;4.55;1.42;;;14.80;99.90;;;;;;4994374;28;20387;-75
2022/09/29 06:18:48;;;;;;;7.10;0.77;;;14.80;99.90;;;;;;4994394;28;20033;-75
2022/09/29 06:21:18;;;;;;;9.15;2.92;;;14.80;99.90;;;;;;4994388;28;20126;-74
2022/09/29 06:23:46;;;;;;;9.00;1.05;;;14.80;99.90;;;;;;4994324;28;20034;-76
2022/09/29 06:26:16;;;;;;;5.10;1.77;;;14.80;99.90;;;;;;4994073;28;20022;-75
2022/09/29 06:28:43;;;;;;;3.17;0.55;;;14.80;99.90;;;;;;4994070;28;20068;-74
2022/09/29 06:31:17;;;;;;;7.95;1.73;;;14.80;99.90;;;;;;4993651;28;20069;-74
2022/09/29 06:33:45;;;;;;;9.82;1.88;;;14.80;99.90;;;;;;4994300;28;20030;-74
2022/09/29 06:39:06;;;;;;;8.73;1.25;;;14.90;99.90;;;;;;4994313;28;20154;-75
2022/09/29 06:41:34;;;;;;;10.00;1.25;;;14.80;99.90;;;;;;4990069;28;20038;-73
2022/09/29 06:44:01;;;;;;;5.00;1.35;;;14.90;99.90;;;;;;4993206;28;20093;-72
2022/09/29 06:46:29;;;;;;;7.05;1.48;;;14.80;99.90;;;;;;4993727;28;20077;-72
2022/09/29 06:48:56;;;;;;;8.98;1.48;;;14.80;99.90;;;;;;4993693;28;20380;-73
2022/09/29 06:51:25;;;;;;;6.88;0.98;;;14.80;99.90;;;;;;4992516;28;20030;-72
2022/09/29 06:53:52;;;;;;;7.90;1.98;;;14.80;99.90;;;;;;4993240;28;20041;-72
2022/09/29 06:56:21;;;;;;;11.57;1.45;;;14.80;99.90;;;;;;4990461;28;20026;-74
2022/09/29 06:58:48;;;;;;;6.95;1.60;;;14.80;99.90;;;;;;4983017;28;20110;-73
2022/09/29 07:01:15;;;;;;;11.98;1.92;;;14.80;99.90;;;;;;4977779;28;20491;-74
2022/09/29 07:03:43;;;;;;;12.00;2.38;;;14.70;99.90;;;;;;4985796;28;20034;-73
2022/09/29 07:06:11;;;;;;;10.63;1.95;;;14.60;99.90;;;;;;4986052;28;20027;-73
2022/09/29 07:08:39;;;;;;;14.00;1.67;;;14.50;99.90;;;;;;4990621;28;20442;-73
2022/09/29 07:11:08;;;;;;;11.05;2.13;;;14.40;99.90;;;;;;4988040;28;20462;-73
2022/09/29 07:13:36;;;;;;;8.25;1.52;;;14.40;99.90;;;;;;4994489;28;20019;-72
2022/09/29 07:16:06;;;;;;;11.23;1.88;;;14.30;99.90;;;;;;4996966;28;20121;-74
2022/09/29 07:18:36;;;;;;;7.35;1.70;;;14.30;99.90;;;;;;4997396;28;20109;-74
2022/09/29 07:21:06;;;;;;;8.70;2.17;;;14.20;99.90;;;;;;4997086;28;20558;-73
2022/09/29 07:23:34;;;;;;;10.25;2.00;;;14.20;99.90;;;;;;4997142;28;20102;-74
2022/09/29 07:26:01;;;;;;;14.38;2.03;;;14.20;99.90;;;;;;4996707;28;20112;-74
2022/09/29 07:28:30;;;;;;;12.20;3.10;;;14.20;99.90;;;;;;4997143;28;20102;-75
2022/09/29 07:31:09;;;;;;;12.40;3.45;;;14.20;99.90;;;;;;4996239;28;20093;-74
2022/09/29 07:33:37;;;;;;;14.20;2.20;;;14.20;99.90;;;;;;4997064;28;20029;-73
2022/09/29 07:36:04;;;;;;;21.48;3.08;;;14.20;99.90;;;;;;4995265;28;20431;-74
2022/09/29 07:38:32;;;;;;;15.57;2.67;;;14.20;99.90;;;;;;4996889;28;20448;-75
2022/09/29 07:41:06;;;;;;;23.15;3.80;;;14.10;99.90;;;;;;4996092;28;20482;-75
2022/09/29 07:43:33;;;;;;;14.90;2.20;;;14.10;99.90;;;;;;4987002;28;20125;-74
2022/09/29 07:46:01;;;;;;;22.23;3.55;;;14.10;99.90;;;;;;4986550;28;20054;-74
2022/09/29 07:48:30;;;;;;;21.45;3.72;;;14.20;99.90;;;;;;4985993;28;20498;-75
2022/09/29 07:51:02;;;;;;;29.48;4.45;;;14.10;99.90;;;;;;4986826;28;20057;-74
2022/09/29 07:53:31;;;;;;;21.02;2.97;;;14.10;99.90;;;;;;4982406;28;20365;-74
2022/09/29 07:56:23;;;;;;;22.33;4.25;;;14.10;99.90;;;;;;4977388;28;20023;-75
2022/09/29 07:58:51;;;;;;;16.50;3.47;;;14.10;99.90;;;;;;4982595;28;20022;-76
2022/09/29 08:01:19;;;;;;;17.90;3.33;;;14.20;99.90;;;;;;4996284;28;20042;-74
2022/09/29 08:03:53;;;;;;;15.30;3.13;;;14.20;99.90;;;;;;4996113;28;20022;-75
2022/09/29 08:06:24;;;;;;;14.13;2.78;;;14.20;99.90;;;;;;4996329;28;20022;-75
2022/09/29 08:08:52;;;;;;;15.98;2.80;;;14.10;99.90;;;;;;4995588;28;20037;-74
2022/09/29 08:11:21;;;;;;;25.13;4.00;;;14.10;99.90;;;;;;4995534;28;20049;-76
2022/09/29 08:13:51;;;;;;;22.15;3.95;;;14.20;99.90;;;;;;4995424;28;20427;-74
2022/09/29 08:16:19;;;;;;;17.42;3.25;;;14.20;99.90;;;;;;4994358;28;20089;-74
2022/09/29 08:18:46;;;;;;;10.70;2.60;;;14.10;99.90;;;;;;4995506;28;20022;-75
2022/09/29 08:21:14;;;;;;;20.88;2.78;;;14.10;99.90;;;;;;4995629;28;20549;-75
2022/09/29 08:23:43;;;;;;;14.13;3.03;;;14.10;99.90;;;;;;4995417;28;20418;-75
2022/09/29 08:26:16;;;;;;;23.52;3.45;;;14.10;99.90;;;;;;4995444;28;20479;-74
2022/09/29 08:28:44;;;;;;;12.90;3.05;;;14.10;99.90;;;;;;4995218;28;20029;-74
2022/09/29 08:31:14;;;;;;;23.58;3.65;;;14.10;99.90;;;;;;4995160;28;20038;-75
2022/09/29 08:33:41;;;;;;;15.27;3.70;;;14.10;99.90;;;;;;4993049;28;20157;-73
2022/09/29 08:36:15;;;;;;;14.98;3.65;;;14.10;99.90;;;;;;4994934;28;20023;-74
2022/09/29 08:38:44;;;;;;;14.15;3.28;;;14.10;99.90;;;;;;4993923;28;20085;-74
2022/09/29 08:41:49;;;;;;;15.30;2.45;;;14.00;99.90;;;;;;4994746;28;20038;-76
2022/09/29 08:44:54;;;;;;;10.23;2.28;;;14.00;99.90;;;;;;4991015;28;20031;-77
2022/09/29 08:47:38;;;;;;;17.60;3.95;;;14.00;99.90;;;;;;4974088;28;20031;-77
2022/09/29 08:50:32;;;;;;;12.13;3.20;;;13.90;99.90;;;;;;4977069;28;20021;-78
2022/09/29 08:53:07;;;;;;;17.92;3.15;;;13.90;99.90;;;;;;4977139;28;20472;-76
2022/09/29 08:55:54;;;;;;;7.00;1.97;;;13.90;99.90;;;;;;4975249;28;20074;-74
2022/09/29 08:58:22;;;;;;;16.17;2.65;;;13.90;99.90;;;;;;4968852;28;20089;-75
2022/09/29 09:01:26;;;;;;;8.65;2.42;;;13.90;99.90;;;;;;4974565;28;20058;-75
2022/09/29 09:04:14;;;;;;;14.35;3.60;;;13.90;99.90;;;;;;4973051;28;20420;-76
2022/09/29 09:07:07;;;;;;;9.82;2.30;;;13.90;99.90;;;;;;4979451;28;20369;-74
2022/09/29 09:10:06;;;;;;;16.25;2.55;;;13.80;99.90;;;;;;4976587;28;20026;-74
2022/09/29 09:12:33;;;;;;;14.27;2.97;;;13.70;99.90;;;;;;4975650;28;20126;-74
2022/09/29 09:15:22;;;;;;;11.75;3.05;;;13.70;99.90;;;;;;4973179;28;20037;-76
2022/09/29 09:18:10;;;;;;;13.57;3.03;;;13.70;99.90;;;;;;4975612;28;20031;-74
2022/09/29 09:21:18;;;;;;;12.88;2.95;;;13.70;99.90;;;;;;4974740;28;20019;-74
2022/09/29 09:24:05;;;;;;;11.13;2.50;;;13.60;99.90;;;;;;4970752;28;20096;-73
2022/09/29 09:26:36;;;;;;;10.43;3.10;;;13.70;99.90;;;;;;4975857;28;20031;-74
2022/09/29 09:29:28;;;;;;;11.15;2.60;;;13.60;99.90;;;;;;4977227;28;20062;-74
2022/09/29 09:32:22;;;;;;;12.55;2.58;;;13.60;99.90;;;;;;4971714;28;20117;-74
2022/09/29 09:35:05;;;;;;;10.30;2.45;;;13.50;99.90;;;;;;4968546;28;20058;-73
2022/09/29 09:37:38;;;;;;;8.20;2.40;;;13.50;99.90;;;;;;4974957;28;20027;-74
2022/09/29 09:40:22;;;;;;;8.88;1.80;;;13.50;99.90;;;;;;4974557;28;20066;-75
2022/09/29 09:43:09;;;;;;;10.07;1.50;;;13.40;99.90;;;;;;4976975;28;20027;-76
2022/09/29 09:45:39;;;;;;;7.30;1.55;;;13.30;99.90;;;;;;4978947;28;20057;-74
2022/09/29 09:48:27;;;;;;;14.15;3.28;;;13.30;99.90;;;;;;4975572;28;20023;-75
2022/09/29 09:50:54;;;;;;;9.52;2.28;;;13.30;99.90;;;;;;4976446;28;20019;-74
2022/09/29 09:53:42;;;;;;;8.82;2.08;;;13.30;99.90;;;;;;4975547;28;20061;-74
2022/09/29 09:56:39;;;;;;;10.02;1.70;;;13.20;99.90;;;;;;4975487;28;20019;-74
2022/09/29 09:59:11;;;;;;;;;;;13.20;99.90;;;;;;4976190;28;20058;-74
2022/09/29 10:01:39;;;;;;;8.50;2.72;;;13.20;99.90;;;;;;4975926;28;20033;-75
2022/09/29 10:04:10;;;;;;;11.23;1.98;;;13.20;99.90;;;;;;4977331;28;20034;-74
2022/09/29 10:06:38;;;;;;;9.23;1.67;;;13.20;99.90;;;;;;4975608;28;20525;-74
2022/09/29 10:09:05;;;;;;;7.97;2.10;;;13.20;99.90;;;;;;4973357;28;20073;-75
2022/09/29 10:11:32;;;;;;;9.55;1.88;;;13.20;99.90;;;;;;4976791;28;20043;-75
2022/09/29 10:14:09;;;;;;;14.15;2.13;;;13.10;99.90;;;;;;4974955;28;20353;-74
2022/09/29 10:16:54;;;;;;;8.75;2.38;;;13.10;99.90;;;;;;4975380;28;20049;-74
2022/09/29 10:19:51;;;;;;;6.88;1.85;;;13.10;99.90;;;;;;4973884;28;20026;-74
2022/09/29 10:22:20;;;;;;;5.43;1.98;;;13.10;99.90;;;;;;4972241;28;20047;-75
2022/09/29 10:24:47;;;;;;;13.10;1.80;;;13.10;99.90;;;;;;4971663;28;20384;-74
2022/09/29 10:27:21;;;;;;;14.90;2.17;;;13.10;99.90;;;;;;4975346;28;20053;-75
2022/09/29 10:29:49;;;;;;;11.20;1.42;;;13.00;99.90;;;;;;4975280;28;20113;-75
2022/09/29 10:32:26;;;;;;;9.73;1.90;;;13.00;99.90;;;;;;4976081;28;20023;-75
2022/09/29 10:35:08;;;;;;;8.27;1.25;;;13.00;99.90;;;;;;4973946;28;20120;-75
2022/09/29 10:37:41;;;;;;;8.63;1.58;;;13.00;99.90;;;;;;4972871;28;20027;-75
2022/09/29 10:40:12;;;;;;;6.75;1.40;;;13.00;99.90;;;;;;4974385;28;20049;-74
2022/09/29 10:42:42;;;;;;;6.90;2.17;;;12.90;99.90;;;;;;4973467;28;20027;-75
2022/09/29 10:45:16;;;;;;;7.15;1.85;;;12.90;99.90;;;;;;4974332;28;20558;-74
2022/09/29 10:47:48;;;;;;;5.93;1.73;;;12.90;99.90;;;;;;4974071;28;20026;-74
2022/09/29 10:50:22;;;;;;;6.40;1.33;;;12.90;99.90;;;;;;4973517;28;20126;-75
2022/09/29 10:52:57;;;;;;;7.18;2.08;;;12.80;99.90;;;;;;4973146;28;20046;-75
2022/09/29 10:55:31;;;;;;;5.32;1.67;;;12.80;99.90;;;;;;4974760;28;20027;-74
2022/09/29 10:58:03;;;;;;;9.23;2.47;;;12.80;99.90;;;;;;4974448;28;20074;-74
2022/09/29 11:00:38;;;;;;;7.97;2.33;;;12.90;99.90;;;;;;4974629;28;20034;-75
2022/09/29 11:03:17;;;;;;;;;;;12.80;99.90;;;;;;4975147;28;20039;-75
2022/09/29 11:05:54;;;;;;;8.15;1.50;;;12.80;99.90;;;;;;4974952;28;19985;-75
2022/09/29 11:08:26;;;;;;;7.20;1.98;;;12.80;99.90;;;;;;4976882;28;20535;-75
2022/09/29 11:11:19;;;;;;;7.93;1.90;;;12.80;99.90;;;;;;4975043;28;20425;-74
2022/09/29 11:13:47;;;;;;;10.63;2.20;;;12.80;99.90;;;;;;4969823;28;20041;-74
2022/09/29 11:16:18;;;;;;;11.55;1.83;;;12.90;99.90;;;;;;4974005;28;20019;-75
2022/09/29 11:18:52;;;;;;;11.65;2.13;;;12.90;99.90;;;;;;4974106;28;20484;-74
2022/09/29 11:21:22;;;;;;;12.98;1.63;;;12.90;99.90;;;;;;4976112;28;20066;-76
2022/09/29 11:24:09;;;;;;;7.70;1.90;;;12.80;99.90;;;;;;4977429;28;20058;-74
2022/09/29 11:26:45;;;;;;;;;;;12.70;99.90;;;;;;4975865;28;20379;-74
2022/09/29 11:29:41;;;;;;;8.32;2.03;;;12.70;99.90;;;;;;4974023;28;20398;-74
2022/09/29 11:32:17;;;;;;;;;;;12.70;99.90;;;;;;4965041;28;20045;-74
2022/09/29 11:34:47;;;;;;;7.10;1.90;;;12.70;99.90;;;;;;4973557;28;19945;-75
2022/09/29 11:37:17;;;;;;;7.57;2.15;;;12.70;99.90;;;;;;4991130;28;20206;-79
2022/09/29 11:39:46;;;;;;;9.38;2.67;;;12.70;99.90;;;;;;4988900;28;20023;-75
2022/09/29 11:42:51;;;;;;;6.93;1.65;;;12.70;99.90;;;;;;4989723;28;20031;-77
2022/09/29 11:45:23;;;;;;;10.85;2.72;;;12.60;99.90;;;;;;4984946;28;20149;-74
2022/09/29 11:48:05;;;;;;;12.02;2.10;;;12.60;99.90;;;;;;4992124;28;20022;-75
2022/09/29 11:50:42;;;;;;;12.00;1.88;;;12.60;99.90;;;;;;4977258;28;20479;-74
2022/09/29 11:53:33;;;;;;;6.47;1.67;;;12.70;99.90;;;;;;4978094;28;20490;-74
2022/09/29 11:56:27;;;;;;;15.23;2.08;;;12.70;99.90;;;;;;4977584;28;20601;-74
2022/09/29 11:59:16;;;;;;;7.60;1.58;;;12.60;99.90;;;;;;4977829;28;20039;-75
2022/09/29 12:02:07;;;;;;;11.77;1.98;;;12.60;99.90;;;;;;4979932;28;20030;-73
2022/09/29 12:04:46;;;;;;;15.00;2.13;;;12.60;99.90;;;;;;4981899;28;20097;-74
2022/09/29 12:07:21;;;;;;;12.48;2.05;;;12.60;99.90;;;;;;4987422;28;20061;-74
2022/09/29 12:10:16;;;;;;;5.43;1.20;;;12.60;99.90;;;;;;4986792;28;20128;-76
2022/09/29 12:12:54;;;;;;;9.20;1.90;;;12.60;99.90;;;;;;4980365;28;20558;-74
2022/09/29 12:15:36;;;;;;;13.32;1.92;;;12.60;99.90;;;;;;4980524;28;20041;-74
2022/09/29 12:18:17;;;;;;;9.90;1.65;;;12.60;99.90;;;;;;4980508;28;20027;-75
2022/09/29 12:20:49;;;;;;;11.45;2.30;;;12.60;99.90;;;;;;4981368;28;20101;-74
2022/09/29 12:23:20;;;;;;;15.05;3.00;;;12.60;99.90;;;;;;4984475;28;20093;-73
2022/09/29 12:26:00;;;;;;;9.35;1.60;;;12.70;99.90;;;;;;4979442;28;20480;-74
2022/09/29 12:28:34;;;;;;;10.18;1.60;;;12.70;99.90;;;;;;4979554;28;20019;-74
2022/09/29 12:31:10;;;;;;;7.93;2.30;;;12.70;99.90;;;;;;4981680;28;20122;-74
2022/09/29 12:33:52;;;;;;;7.65;2.38;;;12.80;99.90;;;;;;4988366;28;20022;-74
2022/09/29 12:36:52;;;;;;;9.60;2.47;;;12.70;99.90;;;;;;4995038;28;20109;-74
2022/09/29 12:39:39;;;;;;;9.55;2.42;;;12.70;99.90;;;;;;4978632;28;20047;-74
2022/09/29 12:42:48;;;;;;;8.02;2.33;;;12.80;99.90;;;;;;4975468;28;20022;-75
2022/09/29 12:45:24;;;;;;;7.85;1.55;;;12.70;99.90;;;;;;4979074;28;20015;-74
2022/09/29 12:48:11;;;;;;;11.13;2.45;;;12.70;99.90;;;;;;4977124;28;20022;-74
2022/09/29 12:50:58;;;;;;;12.02;1.98;;;12.70;99.90;;;;;;4977792;28;20076;-75
2022/09/29 12:53:35;;;;;;;12.35;2.47;;;12.70;99.90;;;;;;4978784;28;20080;-75
2022/09/29 12:56:05;;;;;;;11.18;2.17;;;12.70;99.90;;;;;;4983036;28;20437;-77
2022/09/29 12:58:42;;;;;;;12.70;1.77;;;12.70;99.90;;;;;;4981242;28;20011;-76
2022/09/29 13:01:32;;;;;;;9.57;2.10;;;12.70;99.90;;;;;;4984930;28;20116;-75
2022/09/29 13:04:15;;;;;;;11.40;1.95;;;12.80;99.90;;;;;;4990117;28;20026;-76
2022/09/29 13:07:10;;;;;;;8.98;2.33;;;12.80;99.90;;;;;;4994091;28;20030;-76
2022/09/29 13:10:02;;;;;;;10.35;1.70;;;12.80;99.90;;;;;;4993837;28;20022;-74
2022/09/29 13:12:36;;;;;;;10.25;1.77;;;12.80;99.90;;;;;;4988511;28;20025;-74
2022/09/29 13:15:40;;;;;;;10.13;2.17;;;12.80;99.90;;;;;;4985626;28;20545;-74
2022/09/29 13:18:22;;;;;;;8.52;2.08;;;12.80;99.90;;;;;;4986022;28;20018;-73
2022/09/29 13:21:16;;;;;;;6.15;1.85;;;12.80;99.90;;;;;;4985998;28;20054;-73
2022/09/29 13:24:04;;;;;;;10.30;1.75;;;12.80;99.90;;;;;;4985773;28;20384;-73
2022/09/29 13:26:55;;;;;;;12.55;1.58;;;12.90;99.90;;;;;;4983999;28;20418;-74